createdAt,value
2023-04-25T00:00:18.441Z,18.79
2023-04-25T00:02:45.585Z,19.18
2023-04-25T00:05:13.537Z,18.68
2023-04-25T00:07:43.022Z,18.40
2023-04-25T00:10:12.096Z,18.30
2023-04-25T00:12:40.104Z,18.31
2023-04-25T00:15:07.857Z,18.86
2023-04-25T00:17:36.000Z,18.78
2023-04-25T00:20:06.283Z,19.14
2023-04-25T00:22:35.733Z,19.25
2023-04-25T00:25:04.444Z,19.38
2023-04-25T00:27:31.457Z,19.41
2023-04-25T00:29:58.725Z,19.16
2023-04-25T00:32:26.416Z,19.06
2023-04-25T00:34:53.538Z,19.19
2023-04-25T00:37:21.145Z,19.16
2023-04-25T00:39:48.208Z,18.68
2023-04-25T00:42:15.476Z,18.99
2023-04-25T00:44:43.866Z,19.42
2023-04-25T00:47:12.456Z,19.28
2023-04-25T00:49:39.436Z,18.79
2023-04-25T00:52:06.897Z,19.00
2023-04-25T00:54:33.940Z,18.57
2023-04-25T00:57:02.071Z,18.76
2023-04-25T00:59:30.873Z,18.79
2023-04-25T01:01:59.060Z,18.99
2023-04-25T01:04:28.752Z,19.09
2023-04-25T01:06:56.966Z,19.08
2023-04-25T01:09:24.930Z,19.17
2023-04-25T01:11:52.538Z,18.90
2023-04-25T01:14:19.713Z,18.52
2023-04-25T01:16:47.736Z,19.00
2023-04-25T01:19:19.174Z,18.35
2023-04-25T01:21:47.582Z,17.76
2023-04-25T01:24:15.738Z,18.30
2023-04-25T01:26:50.631Z,18.48
2023-04-25T01:29:21.995Z,19.08
2023-04-25T01:31:49.584Z,18.01
2023-04-25T01:34:16.624Z,18.24
2023-04-25T01:36:44.227Z,18.58
2023-04-25T01:39:12.036Z,18.67
2023-04-25T01:41:39.527Z,18.67
2023-04-25T01:44:06.968Z,18.73
2023-04-25T01:46:35.419Z,18.87
2023-04-25T01:49:03.094Z,18.92
2023-04-25T01:51:31.474Z,18.13
2023-04-25T01:54:00.861Z,17.57
2023-04-25T01:56:38.064Z,18.16
2023-04-25T01:59:07.229Z,18.80
2023-04-25T02:01:51.871Z,18.65
2023-04-25T02:04:26.601Z,18.59
2023-04-25T02:06:53.865Z,18.69
2023-04-25T02:09:21.828Z,18.56
2023-04-25T02:11:54.621Z,18.82
2023-04-25T02:14:34.442Z,18.61
2023-04-25T02:17:24.252Z,18.82
2023-04-25T02:19:52.312Z,18.85
2023-04-25T02:22:19.916Z,18.83
2023-04-25T02:24:47.687Z,18.58
2023-04-25T02:27:15.166Z,18.78
2023-04-25T02:29:42.268Z,18.87
2023-04-25T02:32:11.856Z,18.93
2023-04-25T02:34:39.249Z,17.75
2023-04-25T02:37:06.631Z,18.67
2023-04-25T02:39:33.591Z,18.55
2023-04-25T02:42:02.013Z,18.61
2023-04-25T02:44:30.898Z,18.74
2023-04-25T02:46:57.975Z,18.62
2023-04-25T02:49:24.971Z,18.60
2023-04-25T02:51:53.470Z,18.71
2023-04-25T02:54:20.940Z,18.66
2023-04-25T02:56:49.401Z,18.54
2023-04-25T02:59:23.590Z,18.69
2023-04-25T03:01:50.793Z,18.48
2023-04-25T03:04:20.068Z,18.29
2023-04-25T03:06:48.432Z,18.09
2023-04-25T03:09:15.922Z,17.96
2023-04-25T03:11:43.277Z,18.62
2023-04-25T03:14:10.987Z,18.26
2023-04-25T03:16:38.497Z,18.22
2023-04-25T03:19:06.425Z,18.42
2023-04-25T03:21:35.123Z,18.53
2023-04-25T03:24:04.704Z,18.47
2023-04-25T03:26:32.532Z,18.09
2023-04-25T03:29:00.841Z,18.13
2023-04-25T03:31:28.797Z,17.80
2023-04-25T03:33:56.094Z,17.49
2023-04-25T03:36:24.691Z,18.25
2023-04-25T03:38:51.725Z,18.17
2023-04-25T03:41:21.193Z,18.54
2023-04-25T03:43:53.402Z,18.09
2023-04-25T03:46:21.041Z,16.88
2023-04-25T03:48:48.959Z,18.22
2023-04-25T03:51:22.055Z,17.97
2023-04-25T03:53:49.854Z,18.13
2023-04-25T03:56:21.152Z,18.12
2023-04-25T03:58:53.849Z,18.09
2023-04-25T04:01:24.139Z,18.30
2023-04-25T04:03:51.708Z,17.73
2023-04-25T04:06:21.721Z,17.71
2023-04-25T04:08:53.744Z,17.27
2023-04-25T04:11:21.585Z,17.68
2023-04-25T04:13:49.068Z,18.25
2023-04-25T04:16:16.398Z,18.18
2023-04-25T04:18:44.060Z,18.23
2023-04-25T04:21:11.131Z,18.36
2023-04-25T04:23:41.935Z,18.38
2023-04-25T04:26:11.166Z,18.50
2023-04-25T04:29:01.313Z,18.06
2023-04-25T04:31:53.711Z,18.31
2023-04-25T04:34:21.105Z,18.36
2023-04-25T04:36:48.605Z,18.27
2023-04-25T04:39:16.279Z,18.08
2023-04-25T04:41:55.163Z,18.24
2023-04-25T04:44:45.699Z,18.12
2023-04-25T04:47:26.963Z,17.66
2023-04-25T04:50:13.224Z,17.13
2023-04-25T04:53:03.043Z,17.83
2023-04-25T04:55:47.267Z,17.79
2023-04-25T04:58:32.257Z,17.73
2023-04-25T05:01:25.141Z,18.39
2023-04-25T05:04:19.661Z,17.76
2023-04-25T05:06:58.962Z,18.02
2023-04-25T05:09:51.498Z,18.03
2023-04-25T05:12:41.361Z,17.90
2023-04-25T05:15:11.780Z,17.66
2023-04-25T05:17:54.198Z,17.80
2023-04-25T05:20:41.612Z,17.86
2023-04-25T05:23:09.022Z,17.36
2023-04-25T05:25:51.176Z,18.04
2023-04-25T05:28:31.665Z,18.04
2023-04-25T05:31:15.489Z,17.97
2023-04-25T05:33:51.643Z,17.99
2023-04-25T05:36:22.475Z,18.41
2023-04-25T05:38:49.620Z,17.58
2023-04-25T05:41:22.310Z,17.74
2023-04-25T05:43:57.935Z,17.67
2023-04-25T05:46:41.461Z,18.30
2023-04-25T05:49:28.786Z,17.91
2023-04-25T05:51:58.371Z,18.46
2023-04-25T05:54:31.158Z,17.75
2023-04-25T05:56:58.982Z,17.77
2023-04-25T05:59:26.865Z,17.68
2023-04-25T06:01:57.142Z,17.21
2023-04-25T06:04:24.879Z,17.92
2023-04-25T06:06:52.185Z,17.74
2023-04-25T06:09:19.242Z,17.98
2023-04-25T06:11:46.386Z,18.16
2023-04-25T06:14:13.382Z,18.07
2023-04-25T06:16:46.210Z,17.33
2023-04-25T06:19:13.245Z,17.42
2023-04-25T06:21:41.099Z,17.83
2023-04-25T06:24:09.067Z,17.39
2023-04-25T06:26:36.174Z,17.29
2023-04-25T06:29:04.226Z,17.51
2023-04-25T06:31:33.567Z,17.46
2023-04-25T06:34:01.575Z,17.79
2023-04-25T06:36:30.067Z,18.00
2023-04-25T06:39:03.165Z,17.81
2023-04-25T06:41:30.304Z,18.09
2023-04-25T06:44:02.114Z,17.97
2023-04-25T06:46:55.760Z,17.87
2023-04-25T06:49:23.593Z,17.97
2023-04-25T06:51:50.680Z,18.22
2023-04-25T06:54:18.649Z,17.87
2023-04-25T06:56:56.001Z,17.88
2023-04-25T06:59:23.365Z,18.44
2023-04-25T07:01:51.452Z,17.74
2023-04-25T07:04:22.585Z,18.10
2023-04-25T07:06:53.352Z,18.39
2023-04-25T07:09:26.776Z,18.23
2023-04-25T07:11:54.287Z,18.56
2023-04-25T07:14:21.572Z,18.23
2023-04-25T07:16:49.163Z,17.92
2023-04-25T07:19:16.551Z,17.99
2023-04-25T07:21:44.640Z,18.50
2023-04-25T07:24:12.821Z,18.38
2023-04-25T07:26:45.036Z,17.99
2023-04-25T07:29:40.938Z,18.00
2023-04-25T07:32:08.806Z,17.68
2023-04-25T07:34:38.331Z,17.66
2023-04-25T07:37:06.407Z,18.14
2023-04-25T07:39:42.784Z,18.05
2023-04-25T07:42:10.411Z,18.07
2023-04-25T07:44:41.232Z,18.45
2023-04-25T07:47:11.296Z,18.28
2023-04-25T07:49:38.674Z,18.00
2023-04-25T07:52:09.548Z,18.52
2023-04-25T07:54:38.967Z,18.42
2023-04-25T07:57:15.056Z,18.63
2023-04-25T07:59:42.695Z,18.54
2023-04-25T08:02:10.119Z,18.38
2023-04-25T08:04:38.021Z,18.32
2023-04-25T08:07:08.780Z,18.07
2023-04-25T08:09:42.789Z,17.78
2023-04-25T08:12:21.059Z,17.98
2023-04-25T08:14:53.086Z,16.78
2023-04-25T08:17:21.055Z,16.44
2023-04-25T08:19:48.403Z,16.69
2023-04-25T08:22:24.212Z,17.00
2023-04-25T08:24:55.938Z,17.40
2023-04-25T08:27:23.520Z,17.21
2023-04-25T08:29:52.056Z,17.82
2023-04-25T08:32:20.418Z,17.81
2023-04-25T08:35:01.643Z,18.22
2023-04-25T08:37:29.124Z,18.10
2023-04-25T08:40:01.924Z,18.24
2023-04-25T08:42:50.527Z,18.71
2023-04-25T08:45:17.677Z,18.79
2023-04-25T08:47:46.716Z,18.64
2023-04-25T08:50:14.636Z,18.18
2023-04-25T08:52:50.509Z,18.67
2023-04-25T08:55:17.955Z,18.93
2023-04-25T08:57:45.814Z,18.72
2023-04-25T09:00:14.284Z,18.91
2023-04-25T09:02:45.115Z,18.79
2023-04-25T09:05:15.269Z,19.22
2023-04-25T09:07:43.685Z,19.20
2023-04-25T09:10:11.751Z,19.04
2023-04-25T09:12:39.875Z,19.16
2023-04-25T09:15:12.383Z,19.10
2023-04-25T09:17:59.116Z,19.10
2023-04-25T09:20:33.353Z,19.10
2023-04-25T09:23:04.485Z,19.01
2023-04-25T09:25:40.191Z,19.24
2023-04-25T09:28:09.834Z,19.15
2023-04-25T09:30:37.962Z,18.94
2023-04-25T09:33:11.900Z,19.42
2023-04-25T09:35:45.004Z,19.29
2023-04-25T09:38:23.269Z,19.35
2023-04-25T09:41:12.745Z,18.95
2023-04-25T09:43:47.937Z,19.23
2023-04-25T09:46:16.625Z,18.86
2023-04-25T09:48:51.436Z,19.07
2023-04-25T09:51:28.571Z,19.19
2023-04-25T09:53:59.105Z,18.92
2023-04-25T09:56:49.350Z,19.29
2023-04-25T09:59:16.853Z,18.04
2023-04-25T10:01:44.948Z,18.47
2023-04-25T10:04:27.981Z,18.88
2023-04-25T10:07:06.773Z,18.80
2023-04-25T10:09:36.155Z,19.01
2023-04-25T10:12:04.605Z,18.89
2023-04-25T10:14:33.185Z,18.43
2023-04-25T10:17:01.090Z,18.10
2023-04-25T10:19:29.921Z,18.19
2023-04-25T10:22:11.040Z,18.32
2023-04-25T10:24:39.706Z,18.21
2023-04-25T10:27:07.444Z,17.89
2023-04-25T10:29:34.977Z,17.82
2023-04-25T10:32:02.957Z,16.95
2023-04-25T10:34:49.545Z,17.62
2023-04-25T10:37:16.947Z,18.11
2023-04-25T10:39:44.778Z,17.60
2023-04-25T10:42:12.938Z,17.28
2023-04-25T10:44:40.970Z,17.21
2023-04-25T10:47:10.641Z,17.06
2023-04-25T10:49:44.338Z,17.71
2023-04-25T10:52:17.871Z,18.02
2023-04-25T10:55:05.144Z,17.97
2023-04-25T10:57:43.000Z,17.64
2023-04-25T11:00:18.076Z,17.95
2023-04-25T11:02:54.528Z,17.88
2023-04-25T11:05:31.428Z,17.67
2023-04-25T11:08:07.980Z,17.80
2023-04-25T11:10:39.073Z,16.21
2023-04-25T11:13:06.710Z,16.50
2023-04-25T11:15:33.764Z,16.43
2023-04-25T11:18:02.102Z,16.90
2023-04-25T11:20:30.016Z,17.05
2023-04-25T11:23:01.069Z,17.25
2023-04-25T11:25:28.847Z,16.72
2023-04-25T11:27:59.092Z,16.41
2023-04-25T11:30:27.960Z,16.49
2023-04-25T11:32:55.893Z,17.05
2023-04-25T11:35:24.358Z,16.81
2023-04-25T11:37:51.514Z,17.97
2023-04-25T11:40:19.002Z,18.41
2023-04-25T11:42:47.961Z,18.96
2023-04-25T11:45:16.130Z,17.04
2023-04-25T11:47:43.255Z,18.44
2023-04-25T11:50:11.152Z,19.00
2023-04-25T11:52:43.683Z,19.44
2023-04-25T11:55:21.464Z,19.40
2023-04-25T11:57:53.763Z,19.20
2023-04-25T12:00:23.614Z,18.33
2023-04-25T12:02:56.931Z,19.20
2023-04-25T12:05:35.301Z,18.77
2023-04-25T12:08:16.147Z,20.05
2023-04-25T12:10:46.342Z,19.71
2023-04-25T12:13:25.050Z,19.63
2023-04-25T12:15:53.084Z,18.81
2023-04-25T12:18:22.237Z,19.34
2023-04-25T12:20:49.647Z,18.26
2023-04-25T12:23:16.834Z,18.25
2023-04-25T12:25:46.157Z,18.83
2023-04-25T12:28:15.460Z,18.68
2023-04-25T12:31:06.748Z,17.43
2023-04-25T12:33:38.458Z,18.98
2023-04-25T12:36:10.203Z,18.02
2023-04-25T12:38:42.722Z,17.70
2023-04-25T12:41:10.421Z,17.42
2023-04-25T12:43:37.876Z,18.04
2023-04-25T12:46:05.404Z,17.96
2023-04-25T12:48:32.544Z,18.58
2023-04-25T12:50:59.849Z,18.50
2023-04-25T12:53:27.356Z,17.71
2023-04-25T12:58:22.363Z,18.20
2023-04-25T13:00:57.047Z,18.41
2023-04-25T13:07:52.873Z,17.83
2023-04-25T13:10:20.443Z,17.78
2023-04-25T13:12:47.955Z,17.89
2023-04-25T13:15:16.624Z,18.87
2023-04-25T13:17:44.399Z,18.61
2023-04-25T13:20:11.780Z,18.63
2023-04-25T13:22:40.356Z,19.89
2023-04-25T13:25:09.179Z,18.92
2023-04-25T13:27:37.908Z,18.08
2023-04-25T13:30:08.269Z,19.48
2023-04-25T13:32:39.463Z,18.65
2023-04-25T13:35:11.126Z,20.87
2023-04-25T13:37:39.600Z,19.87
2023-04-25T13:40:11.165Z,19.80
2023-04-25T13:42:39.547Z,20.63
2023-04-25T13:45:08.033Z,21.30
2023-04-25T13:47:36.347Z,20.55
2023-04-25T13:50:04.921Z,20.33
2023-04-25T13:52:32.212Z,19.53
2023-04-25T13:54:59.985Z,19.30
2023-04-25T13:57:26.981Z,19.45
2023-04-25T13:59:55.021Z,18.94
2023-04-25T14:02:22.452Z,18.44
2023-04-25T14:04:49.862Z,16.91
2023-04-25T14:07:17.312Z,17.16
2023-04-25T14:09:44.888Z,18.20
2023-04-25T14:12:12.261Z,18.04
2023-04-25T14:14:39.866Z,18.67
2023-04-25T14:17:07.850Z,19.42
2023-04-25T14:19:35.480Z,19.32
2023-04-25T14:22:02.529Z,18.43
2023-04-25T14:24:29.950Z,18.88
2023-04-25T14:26:57.643Z,17.34
2023-04-25T14:29:24.693Z,19.28
2023-04-25T14:31:51.770Z,18.98
2023-04-25T14:34:19.283Z,19.38
2023-04-25T14:36:46.681Z,18.69
2023-04-25T14:39:15.756Z,18.40
2023-04-25T14:41:42.738Z,18.81
2023-04-25T14:44:10.119Z,19.19
2023-04-25T14:46:38.546Z,19.33
2023-04-25T14:49:06.417Z,17.88
2023-04-25T14:51:34.300Z,18.16
2023-04-25T14:54:02.079Z,18.57
2023-04-25T14:56:29.441Z,18.62
2023-04-25T14:58:57.601Z,18.65
2023-04-25T15:01:25.154Z,18.86
2023-04-25T15:03:53.010Z,18.74
2023-04-25T15:06:20.842Z,17.79
2023-04-25T15:08:48.260Z,18.00
2023-04-25T15:11:15.750Z,18.17
2023-04-25T15:13:43.191Z,18.31
2023-04-25T15:16:11.293Z,17.91
2023-04-25T15:18:38.690Z,18.52
2023-04-25T15:21:06.574Z,18.25
2023-04-25T15:23:33.950Z,18.86
2023-04-25T15:26:01.366Z,18.32
2023-04-25T15:28:28.730Z,18.20
2023-04-25T15:30:56.620Z,18.14
2023-04-25T15:33:24.163Z,18.38
2023-04-25T15:35:51.763Z,18.14
2023-04-25T15:38:21.296Z,18.69
2023-04-25T15:40:48.759Z,19.16
2023-04-25T15:43:17.284Z,18.62
2023-04-25T15:45:45.756Z,18.91
2023-04-25T15:48:17.453Z,19.20
2023-04-25T15:50:45.001Z,18.94
2023-04-25T15:53:12.406Z,19.10
2023-04-25T15:55:46.589Z,19.44
2023-04-25T15:58:14.034Z,19.07
2023-04-25T16:00:41.626Z,18.57
2023-04-25T16:03:09.277Z,18.85
2023-04-25T16:05:37.556Z,19.12
2023-04-25T16:08:05.408Z,18.42
2023-04-25T16:10:33.279Z,18.81
2023-04-25T16:13:00.953Z,19.32
2023-04-25T16:15:28.340Z,19.19
2023-04-25T16:17:55.935Z,18.57
2023-04-25T16:20:23.402Z,18.88
2023-04-25T16:22:51.163Z,18.99
2023-04-25T16:25:18.697Z,19.07
2023-04-25T16:27:46.252Z,18.64
2023-04-25T16:30:14.285Z,19.04
2023-04-25T16:32:44.729Z,18.73
2023-04-25T16:35:12.706Z,18.43
2023-04-25T16:37:40.387Z,18.56
2023-04-25T16:40:11.073Z,19.00
2023-04-25T16:42:38.579Z,18.51
2023-04-25T16:45:06.468Z,19.22
2023-04-25T16:47:33.646Z,19.57
2023-04-25T16:50:01.715Z,19.10
2023-04-25T16:52:29.175Z,18.73
2023-04-25T16:54:56.457Z,18.67
2023-04-25T16:57:23.889Z,17.47
2023-04-25T16:59:52.071Z,18.20
2023-04-25T17:02:19.569Z,18.00
2023-04-25T17:04:47.642Z,18.21
2023-04-25T17:07:15.988Z,18.41
2023-04-25T17:09:43.484Z,18.49
2023-04-25T17:12:10.898Z,18.96
2023-04-25T17:14:39.078Z,18.98
2023-04-25T17:17:07.082Z,18.90
2023-04-25T17:19:34.589Z,18.16
2023-04-25T17:22:02.084Z,18.49
2023-04-25T17:24:29.515Z,18.71
2023-04-25T17:26:57.339Z,18.60
2023-04-25T17:29:24.882Z,18.75
2023-04-25T17:31:53.664Z,18.89
2023-04-25T17:34:21.545Z,18.70
2023-04-25T17:36:48.668Z,18.36
2023-04-25T17:39:17.383Z,18.73
2023-04-25T17:41:45.662Z,18.43
2023-04-25T17:44:13.471Z,18.30
2023-04-25T17:46:41.596Z,17.51
2023-04-25T17:49:09.152Z,18.01
2023-04-25T17:51:37.066Z,17.90
2023-04-25T17:54:04.507Z,17.31
2023-04-25T17:56:31.932Z,17.59
2023-04-25T17:58:59.553Z,18.46
2023-04-25T18:01:27.090Z,17.96
2023-04-25T18:03:57.917Z,18.15
2023-04-25T18:06:28.285Z,17.92
2023-04-25T18:08:57.174Z,17.87
2023-04-25T18:11:24.781Z,18.05
2023-04-25T18:13:52.768Z,18.39
2023-04-25T18:16:20.021Z,18.15
2023-04-25T18:18:53.392Z,17.73
2023-04-25T18:21:21.612Z,17.92
2023-04-25T18:23:49.046Z,17.85
2023-04-25T18:26:16.482Z,17.96
2023-04-25T18:28:43.971Z,17.72
2023-04-25T18:31:11.943Z,17.89
2023-04-25T18:33:39.071Z,18.00
2023-04-25T18:36:07.096Z,18.39
2023-04-25T18:38:35.960Z,18.40
2023-04-25T18:41:27.147Z,18.44
2023-04-25T18:44:01.137Z,18.47
2023-04-25T18:46:29.471Z,18.50
2023-04-25T18:48:57.524Z,18.35
2023-04-25T18:51:31.982Z,18.33
2023-04-25T18:53:59.593Z,18.32
2023-04-25T18:56:28.085Z,18.38
2023-04-25T18:58:56.456Z,18.29
2023-04-25T19:01:25.485Z,18.15
2023-04-25T19:03:57.200Z,18.09
2023-04-25T19:06:28.033Z,18.44
2023-04-25T19:08:56.450Z,18.37
2023-04-25T19:11:24.468Z,17.98
2023-04-25T19:13:52.452Z,17.64
2023-04-25T19:16:20.128Z,17.68
2023-04-25T19:19:27.524Z,18.16
2023-04-25T19:22:08.687Z,17.65
2023-04-25T19:29:37.024Z,17.73
2023-04-25T19:32:20.361Z,18.09
2023-04-25T19:35:17.303Z,18.00
2023-04-25T19:37:48.036Z,18.04
2023-04-25T19:40:16.462Z,18.04
2023-04-25T19:42:44.507Z,18.04
2023-04-25T19:45:12.594Z,18.20
2023-04-25T19:47:40.583Z,18.15
2023-04-25T19:50:09.427Z,18.10
2023-04-25T19:52:37.535Z,18.03
2023-04-25T19:55:06.299Z,18.09
2023-04-25T19:57:38.029Z,18.23
2023-04-25T20:00:14.411Z,18.39
2023-04-25T20:02:50.798Z,18.23
2023-04-25T20:05:18.644Z,18.12
2023-04-25T20:07:46.114Z,17.71
2023-04-25T20:10:15.617Z,17.57
2023-04-25T20:12:44.153Z,17.65
2023-04-25T20:15:14.415Z,17.49
2023-04-25T20:17:42.707Z,17.65
2023-04-25T20:20:11.973Z,17.74
2023-04-25T20:22:40.558Z,18.02
2023-04-25T20:25:09.953Z,18.18
2023-04-25T20:27:38.233Z,17.98
2023-04-25T20:30:09.736Z,17.91
2023-04-25T20:32:37.341Z,17.89
2023-04-25T20:35:07.797Z,18.24
2023-04-25T20:37:35.963Z,18.12
2023-04-25T20:40:09.875Z,18.09
2023-04-25T20:42:38.166Z,17.95
2023-04-25T20:45:13.102Z,18.23
2023-04-25T20:47:41.428Z,18.05
2023-04-25T20:50:14.967Z,18.08
2023-04-25T20:52:43.222Z,17.89
2023-04-25T20:55:11.850Z,17.90
2023-04-25T20:57:38.964Z,17.91
2023-04-25T21:00:16.802Z,17.83
2023-04-25T21:02:46.003Z,18.88
2023-04-25T21:05:13.958Z,17.77
2023-04-25T21:07:41.756Z,17.42
2023-04-25T21:10:09.592Z,17.57
2023-04-25T21:12:37.058Z,17.37
2023-04-25T21:15:05.075Z,17.35
2023-04-25T21:17:32.690Z,17.41
2023-04-25T21:20:00.329Z,17.52
2023-04-25T21:22:27.730Z,17.65
2023-04-25T21:24:57.199Z,17.65
2023-04-25T21:27:24.684Z,17.61
2023-04-25T21:29:52.125Z,17.61
2023-04-25T21:32:21.924Z,17.60
2023-04-25T21:34:49.418Z,17.59
2023-04-25T21:37:16.849Z,17.50
2023-04-25T21:39:44.652Z,17.55
2023-04-25T21:42:12.070Z,17.54
2023-04-25T21:44:40.102Z,17.56
2023-04-25T21:47:07.598Z,17.60
2023-04-25T21:49:35.089Z,17.41
2023-04-25T21:52:05.035Z,17.39
2023-04-25T21:54:32.489Z,17.46
2023-04-25T21:56:59.983Z,17.50
2023-04-25T21:59:27.537Z,17.37
2023-04-25T22:01:55.228Z,17.46
2023-04-25T22:04:23.079Z,17.50
2023-04-25T22:06:50.746Z,17.55
2023-04-25T22:09:18.266Z,17.50
2023-04-25T22:11:46.965Z,17.57
2023-04-25T22:14:15.172Z,17.66
2023-04-25T22:16:43.506Z,17.42
2023-04-25T22:19:11.538Z,17.35
2023-04-25T22:21:39.040Z,17.45
2023-04-25T22:24:06.706Z,17.52
2023-04-25T22:26:34.756Z,17.40
2023-04-25T22:29:02.783Z,17.53
2023-04-25T22:31:30.438Z,17.49
2023-04-25T22:33:58.054Z,17.43
2023-04-25T22:36:25.760Z,17.35
2023-04-25T22:38:53.949Z,17.34
2023-04-25T22:41:23.638Z,17.34
2023-04-25T22:43:51.116Z,17.27
2023-04-25T22:46:19.917Z,17.45
2023-04-25T22:48:48.255Z,17.47
2023-04-25T22:51:15.833Z,17.38
2023-04-25T22:53:45.284Z,17.45
2023-04-25T22:56:13.231Z,17.39
2023-04-25T22:58:40.269Z,16.97
2023-04-25T23:01:08.706Z,17.26
2023-04-25T23:03:36.412Z,17.31
2023-04-25T23:06:04.151Z,17.16
2023-04-25T23:08:31.659Z,17.14
2023-04-25T23:10:59.462Z,17.26
2023-04-25T23:13:26.959Z,17.39
2023-04-25T23:15:54.375Z,17.50
2023-04-25T23:18:22.186Z,17.47
2023-04-25T23:20:49.589Z,17.42
2023-04-25T23:23:17.115Z,17.53
2023-04-25T23:25:46.014Z,17.36
2023-04-25T23:28:13.454Z,17.43
2023-04-25T23:30:41.323Z,17.55
2023-04-25T23:33:08.966Z,17.42
2023-04-25T23:35:37.211Z,17.51
2023-04-25T23:38:04.955Z,17.46
2023-04-25T23:40:32.737Z,17.41
2023-04-25T23:43:02.283Z,17.40
2023-04-25T23:45:30.417Z,17.26
2023-04-25T23:48:03.995Z,17.31
2023-04-25T23:50:31.953Z,17.33
2023-04-25T23:52:59.359Z,17.38
2023-04-25T23:55:27.227Z,17.21
2023-04-25T23:57:55.109Z,17.17
